Time;durP1;ratioP1;P1;durP2;ratioP2;P2;SDS_P1;SDS_P2;PMS_P1;PMS_P2;Temp;Humidity;BMP_temperature;BMP_pressure;BME280_temperature;BME280_humidity;BME280_pressure;Samples;Min_cycle;Max_cycle;Signal;HPM_P1;HPM_P2
2023/09/30 00:00:27;;;;;;;0.93;0.90;;;18.70;99.90;;;;;;6255596;23;20678;-85
2023/09/30 00:02:54;;;;;;;1.63;1.53;;;18.60;99.90;;;;;;6232015;23;20360;-84
2023/09/30 00:05:21;;;;;;;0.70;0.70;;;18.60;99.90;;;;;;6240950;23;20360;-85
2023/09/30 00:07:48;;;;;;;1.73;1.63;;;18.60;99.90;;;;;;6267007;22;20415;-84
2023/09/30 00:10:16;;;;;;;1.37;1.37;;;18.60;99.90;;;;;;6265161;23;20364;-85
2023/09/30 00:12:44;;;;;;;2.30;1.57;;;18.60;99.90;;;;;;6255392;23;20606;-85
2023/09/30 00:15:11;;;;;;;1.33;1.33;;;18.60;99.90;;;;;;6254662;23;20448;-83
2023/09/30 00:17:38;;;;;;;2.33;2.23;;;18.60;99.90;;;;;;6255547;23;20367;-84
2023/09/30 00:20:06;;;;;;;0.70;0.70;;;18.60;99.90;;;;;;6233051;23;20439;-84
2023/09/30 00:22:32;;;;;;;1.40;1.40;;;18.60;99.90;;;;;;6245388;23;20401;-83
2023/09/30 00:25:00;;;;;;;0.80;0.80;;;18.60;99.90;;;;;;6245179;23;20391;-86
2023/09/30 00:27:28;;;;;;;1.30;1.20;;;18.50;99.90;;;;;;6273027;22;20418;-84
2023/09/30 00:29:55;;;;;;;1.50;1.40;;;18.60;99.90;;;;;;6266772;22;20384;-85
2023/09/30 00:32:22;;;;;;;0.70;0.70;;;18.60;99.90;;;;;;6236321;23;20621;-85
2023/09/30 00:34:49;;;;;;;0.80;0.80;;;18.80;99.90;;;;;;6263429;23;20416;-86
2023/09/30 00:37:16;;;;;;;1.53;1.47;;;18.80;99.90;;;;;;6257040;23;20402;-85
2023/09/30 00:39:44;;;;;;;2.10;1.47;;;18.70;99.90;;;;;;6258337;23;20401;-85
2023/09/30 00:42:11;;;;;;;2.67;2.57;;;18.80;99.90;;;;;;6260137;23;20370;-86
2023/09/30 00:44:38;;;;;;;0.70;0.70;;;18.70;99.90;;;;;;6237542;23;20367;-87
2023/09/30 00:47:06;;;;;;;3.20;3.00;;;18.80;99.90;;;;;;6258986;23;20431;-85
2023/09/30 00:49:33;;;;;;;1.13;1.13;;;18.80;99.90;;;;;;6232050;23;20360;-89
2023/09/30 00:52:02;;;;;;;2.20;2.10;;;18.80;99.90;;;;;;6233665;23;20394;-83
2023/09/30 00:54:30;;;;;;;0.70;0.70;;;18.90;99.90;;;;;;6230385;23;20389;-86
2023/09/30 00:57:00;;;;;;;0.80;0.80;;;18.90;99.90;;;;;;6257603;23;20480;-89
2023/09/30 00:59:31;;;;;;;1.77;1.67;;;18.90;99.90;;;;;;6261486;23;20387;-88
2023/09/30 01:02:02;;;;;;;1.63;1.53;;;18.90;99.90;;;;;;6259104;23;20352;-86
2023/09/30 01:04:29;;;;;;;1.87;1.80;;;18.90;99.90;;;;;;6230530;23;20396;-89
2023/09/30 01:07:00;;;;;;;1.43;1.40;;;18.90;99.90;;;;;;6258793;23;20404;-87
2023/09/30 01:09:27;;;;;;;1.77;1.67;;;18.80;99.90;;;;;;6233095;23;20370;-88
2023/09/30 01:11:54;;;;;;;1.73;1.63;;;18.90;99.90;;;;;;6257195;23;20381;-84
2023/09/30 01:14:34;;;;;;;1.30;1.30;;;19.00;99.90;;;;;;6258018;23;20379;-85
2023/09/30 01:17:02;;;;;;;3.03;1.53;;;19.00;99.90;;;;;;6257653;23;20613;-85
2023/09/30 01:19:29;;;;;;;0.77;0.77;;;19.00;99.90;;;;;;6256985;23;20741;-85
2023/09/30 01:21:58;;;;;;;2.20;2.10;;;19.20;99.90;;;;;;6256555;23;20423;-85
2023/09/30 01:24:27;;;;;;;1.67;1.57;;;19.20;99.90;;;;;;6255938;23;20392;-84
2023/09/30 01:26:54;;;;;;;1.33;1.23;;;19.20;99.90;;;;;;6256185;23;20425;-84
2023/09/30 01:29:22;;;;;;;1.10;1.10;;;19.10;99.90;;;;;;6256097;23;20393;-83
2023/09/30 01:31:49;;;;;;;10.40;2.50;;;19.20;99.90;;;;;;6230231;23;20407;-86
2023/09/30 01:34:16;;;;;;;2.30;1.40;;;19.20;99.90;;;;;;6230015;23;20384;-89
2023/09/30 01:36:44;;;;;;;0.77;0.77;;;19.20;99.90;;;;;;6231329;23;20371;-85
2023/09/30 01:39:12;;;;;;;0.80;0.80;;;19.00;99.90;;;;;;6256675;23;20413;-86
2023/09/30 01:41:40;;;;;;;3.17;2.00;;;19.20;99.90;;;;;;6257068;23;20389;-83
2023/09/30 01:44:09;;;;;;;2.80;2.60;;;19.20;99.90;;;;;;6256260;23;20412;-84
2023/09/30 01:46:36;;;;;;;3.70;2.53;;;19.20;99.90;;;;;;6257457;23;20425;-85
2023/09/30 01:49:03;;;;;;;1.57;1.50;;;19.40;99.90;;;;;;6258506;23;20460;-87
2023/09/30 01:51:31;;;;;;;1.37;1.27;;;19.40;99.90;;;;;;6241186;23;20404;-86
2023/09/30 01:53:58;;;;;;;2.80;2.70;;;19.40;99.90;;;;;;6260118;23;20606;-84
2023/09/30 01:56:26;;;;;;;1.30;1.23;;;19.50;99.90;;;;;;6256667;23;20468;-85
2023/09/30 01:58:53;;;;;;;0.90;0.90;;;19.60;99.90;;;;;;6256869;23;20397;-83
2023/09/30 02:01:21;;;;;;;1.53;1.00;;;19.60;99.90;;;;;;6257075;23;20396;-85
2023/09/30 02:03:49;;;;;;;1.33;1.33;;;19.60;99.90;;;;;;6255743;23;20727;-86
2023/09/30 02:06:16;;;;;;;1.23;1.13;;;19.40;99.90;;;;;;6229634;23;20385;-83
2023/09/30 02:08:44;;;;;;;1.10;1.10;;;19.50;99.90;;;;;;6256157;23;20393;-85
2023/09/30 02:11:13;;;;;;;4.30;2.77;;;19.50;99.90;;;;;;6259438;23;20429;-88
2023/09/30 02:13:44;;;;;;;0.50;0.50;;;19.50;99.90;;;;;;6264092;23;20525;-90
2023/09/30 02:16:13;;;;;;;1.00;1.00;;;19.40;99.90;;;;;;6260788;23;20403;-87
2023/09/30 02:18:44;;;;;;;2.10;1.97;;;19.30;99.90;;;;;;6256017;23;20364;-87
2023/09/30 02:21:12;;;;;;;0.97;0.97;;;19.50;99.90;;;;;;6256317;23;20537;-86
2023/09/30 02:23:39;;;;;;;0.70;0.70;;;19.40;99.90;;;;;;6256159;23;20391;-88
2023/09/30 02:26:06;;;;;;;0.67;0.67;;;19.50;99.90;;;;;;6256007;23;20390;-86
2023/09/30 02:28:34;;;;;;;1.70;1.50;;;19.60;99.90;;;;;;6255935;23;20396;-85
2023/09/30 02:31:01;;;;;;;0.70;0.70;;;19.50;99.90;;;;;;6255983;23;20390;-85
2023/09/30 02:33:28;;;;;;;3.20;1.77;;;19.50;99.90;;;;;;6229657;23;20650;-84
2023/09/30 02:36:00;;;;;;;0.97;0.97;;;19.60;99.90;;;;;;6230099;23;20737;-87
2023/09/30 02:38:27;;;;;;;1.23;0.70;;;19.60;99.90;;;;;;6229280;23;20537;-85
2023/09/30 02:40:55;;;;;;;1.20;1.20;;;19.60;99.90;;;;;;6229444;23;20344;-84
2023/09/30 02:43:22;;;;;;;0.80;0.80;;;19.60;99.90;;;;;;6256334;23;20364;-84
2023/09/30 02:45:50;;;;;;;1.27;1.27;;;19.60;99.90;;;;;;6255999;23;20672;-87
2023/09/30 02:48:17;;;;;;;1.10;1.10;;;19.60;99.90;;;;;;6229577;23;20426;-86
2023/09/30 02:50:44;;;;;;;0.80;0.80;;;19.60;99.90;;;;;;6255941;23;20581;-86
2023/09/30 02:53:15;;;;;;;0.60;0.60;;;19.70;99.90;;;;;;6257487;23;20451;-87
2023/09/30 02:55:42;;;;;;;0.80;0.80;;;19.60;99.90;;;;;;6241247;23;20356;-89
2023/09/30 02:58:10;;;;;;;0.73;0.73;;;19.50;99.90;;;;;;6241681;23;20395;-92
2023/09/30 03:00:38;;;;;;;3.20;1.37;;;19.50;99.90;;;;;;6233839;23;20704;-89
2023/09/30 03:03:06;;;;;;;0.60;0.60;;;19.30;99.90;;;;;;6258548;23;20413;-86
2023/09/30 03:05:35;;;;;;;2.60;2.40;;;19.20;99.90;;;;;;6233628;23;20393;-87
2023/09/30 03:08:05;;;;;;;0.80;0.80;;;19.30;99.90;;;;;;6259023;23;20423;-88
2023/09/30 03:10:32;;;;;;;0.90;0.90;;;19.10;99.90;;;;;;6232143;23;20393;-91
2023/09/30 03:13:02;;;;;;;0.83;0.83;;;19.10;99.90;;;;;;6258381;23;20384;-88
2023/09/30 03:15:32;;;;;;;0.97;0.97;;;19.20;99.90;;;;;;6259541;23;20363;-90
2023/09/30 03:17:59;;;;;;;1.23;1.23;;;19.10;99.90;;;;;;6256948;23;20429;-85
2023/09/30 03:20:27;;;;;;;1.13;1.10;;;19.10;99.90;;;;;;6257189;23;20389;-89
2023/09/30 03:22:57;;;;;;;3.03;2.40;;;18.90;99.90;;;;;;6232806;23;20409;-88
2023/09/30 03:25:24;;;;;;;1.27;1.17;;;19.00;99.90;;;;;;6261386;22;20392;-91
2023/09/30 03:27:51;;;;;;;0.60;0.60;;;18.80;99.90;;;;;;6258091;23;20459;-88
2023/09/30 03:30:20;;;;;;;2.87;2.03;;;18.70;99.90;;;;;;6231384;23;20684;-87
2023/09/30 03:32:47;;;;;;;0.70;0.70;;;18.50;99.90;;;;;;6236120;23;20408;-88
2023/09/30 03:35:17;;;;;;;0.97;0.97;;;18.60;99.90;;;;;;6247838;22;20448;-88
2023/09/30 03:37:46;;;;;;;1.03;1.03;;;18.50;99.90;;;;;;6260236;23;20393;-86
2023/09/30 03:40:27;;;;;;;7.93;2.40;;;18.50;99.90;;;;;;6258672;23;20389;-88
2023/09/30 03:42:55;;;;;;;1.10;1.10;;;18.60;99.90;;;;;;6234638;23;20421;-91
2023/09/30 03:45:22;;;;;;;0.50;0.50;;;18.60;99.90;;;;;;6232897;23;20411;-90
2023/09/30 03:47:51;;;;;;;0.70;0.70;;;18.60;99.90;;;;;;6232745;23;20406;-87
2023/09/30 03:50:18;;;;;;;1.03;1.03;;;18.80;99.90;;;;;;6235625;23;20480;-88
2023/09/30 03:52:47;;;;;;;1.17;1.17;;;18.80;99.90;;;;;;6264135;23;20364;-81
2023/09/30 03:55:17;;;;;;;1.20;1.17;;;18.80;99.90;;;;;;6231544;23;20411;-86
2023/09/30 03:57:48;;;;;;;0.50;0.50;;;18.90;99.90;;;;;;6266010;23;20369;-85
2023/09/30 04:00:18;;;;;;;1.37;1.30;;;18.90;99.90;;;;;;6240648;23;20371;-85
2023/09/30 04:02:49;;;;;;;2.73;2.63;;;18.90;99.90;;;;;;6267876;23;20383;-87
2023/09/30 04:05:18;;;;;;;1.43;1.43;;;18.80;99.90;;;;;;6235875;23;20677;-82
2023/09/30 04:07:48;;;;;;;0.83;0.83;;;18.90;99.90;;;;;;6260540;23;20455;-90
2023/09/30 04:10:15;;;;;;;0.83;0.83;;;19.00;99.90;;;;;;6262228;23;20371;-86
2023/09/30 04:12:46;;;;;;;4.57;2.13;;;19.00;99.90;;;;;;6235195;23;20412;-87
2023/09/30 04:15:13;;;;;;;1.57;1.47;;;19.00;99.90;;;;;;6237922;23;20372;-87
2023/09/30 04:17:40;;;;;;;2.70;2.50;;;19.00;99.90;;;;;;6239421;23;20438;-84
2023/09/30 04:20:10;;;;;;;0.80;0.80;;;18.90;99.90;;;;;;6264888;23;20360;-87
2023/09/30 04:22:38;;;;;;;2.33;2.13;;;19.00;99.90;;;;;;6244941;23;20479;-84
2023/09/30 04:25:10;;;;;;;0.70;0.70;;;18.90;99.90;;;;;;6274103;22;20404;-85
2023/09/30 04:27:40;;;;;;;0.53;0.53;;;18.80;99.90;;;;;;6248140;22;20407;-84
2023/09/30 04:30:08;;;;;;;1.10;1.10;;;18.70;99.90;;;;;;6265950;23;20401;-87
2023/09/30 04:32:36;;;;;;;0.80;0.80;;;18.70;99.90;;;;;;6263587;23;20387;-88
2023/09/30 04:35:04;;;;;;;0.60;0.60;;;18.50;99.90;;;;;;6265066;23;20407;-88
2023/09/30 04:37:32;;;;;;;1.37;1.27;;;18.50;99.90;;;;;;6236224;23;20384;-87
2023/09/30 04:39:59;;;;;;;1.40;1.30;;;18.40;99.90;;;;;;6261274;23;20399;-86
2023/09/30 04:42:26;;;;;;;1.67;1.57;;;18.40;99.90;;;;;;6258948;23;20363;-92
2023/09/30 04:44:55;;;;;;;1.10;1.10;;;18.50;99.90;;;;;;6264554;23;20372;-87
2023/09/30 04:47:23;;;;;;;0.90;0.90;;;18.40;99.90;;;;;;6271057;22;20407;-82
2023/09/30 04:49:51;;;;;;;0.60;0.60;;;18.30;99.90;;;;;;6246709;23;20356;-83
2023/09/30 04:52:18;;;;;;;0.60;0.60;;;18.40;99.90;;;;;;6268448;23;20438;-86
2023/09/30 04:54:45;;;;;;;0.80;0.80;;;18.40;99.90;;;;;;6270154;22;20405;-86
2023/09/30 04:57:12;;;;;;;1.73;1.10;;;18.30;99.90;;;;;;6273899;22;20394;-86
2023/09/30 04:59:39;;;;;;;2.50;2.40;;;18.40;99.90;;;;;;6275035;22;20375;-87
2023/09/30 05:02:06;;;;;;;0.97;0.97;;;18.40;99.90;;;;;;6274882;22;20424;-88
2023/09/30 05:04:36;;;;;;;0.60;0.60;;;18.40;99.90;;;;;;6247923;22;20372;-83
2023/09/30 05:07:08;;;;;;;2.43;2.30;;;18.50;99.90;;;;;;6269743;22;20401;-86
2023/09/30 05:09:36;;;;;;;0.70;0.70;;;18.40;99.90;;;;;;6272346;22;20380;-90
2023/09/30 05:12:06;;;;;;;0.90;0.90;;;18.40;99.90;;;;;;6264428;22;20378;-83
2023/09/30 05:14:33;;;;;;;2.47;2.27;;;18.40;99.90;;;;;;6259052;23;20391;-86
2023/09/30 05:17:01;;;;;;;0.80;0.80;;;18.40;99.90;;;;;;6233219;23;20413;-85
2023/09/30 05:19:28;;;;;;;0.90;0.90;;;18.50;99.90;;;;;;6259656;23;20367;-90
2023/09/30 05:21:55;;;;;;;6.33;2.60;;;18.50;99.90;;;;;;6262185;23;20367;-84
2023/09/30 05:24:22;;;;;;;1.53;1.53;;;18.50;99.90;;;;;;6262926;22;20461;-84
2023/09/30 05:26:49;;;;;;;1.97;1.87;;;18.50;99.90;;;;;;6261843;23;20393;-89
2023/09/30 05:29:20;;;;;;;0.80;0.80;;;18.50;99.90;;;;;;6234488;23;20372;-88
2023/09/30 05:31:54;;;;;;;0.70;0.70;;;18.50;99.90;;;;;;6213634;23;20443;-89
2023/09/30 05:34:27;;;;;;;2.20;2.00;;;18.70;99.90;;;;;;6234344;23;20513;-90
2023/09/30 05:36:55;;;;;;;2.00;1.90;;;18.70;99.90;;;;;;6261479;23;20420;-89
2023/09/30 05:39:22;;;;;;;5.20;3.03;;;18.90;99.90;;;;;;6235421;23;20388;-87
2023/09/30 05:41:49;;;;;;;0.77;0.77;;;18.70;99.90;;;;;;6263739;23;20438;-88
2023/09/30 05:44:16;;;;;;;1.33;1.33;;;18.70;99.90;;;;;;6237291;23;20391;-90
2023/09/30 05:46:43;;;;;;;2.00;1.00;;;18.70;99.90;;;;;;6236154;23;20460;-87
2023/09/30 05:49:20;;;;;;;0.87;0.87;;;18.70;99.90;;;;;;6261957;22;20547;-89
2023/09/30 05:51:50;;;;;;;1.13;1.13;;;18.80;99.90;;;;;;6262475;23;20533;-86
2023/09/30 05:54:17;;;;;;;1.77;1.67;;;18.70;99.90;;;;;;6259160;23;20389;-81
2023/09/30 05:56:45;;;;;;;0.80;0.80;;;18.60;99.90;;;;;;6260325;23;20383;-88
2023/09/30 05:59:13;;;;;;;1.47;1.07;;;18.40;99.90;;;;;;6232234;23;20407;-80
2023/09/30 06:01:41;;;;;;;1.10;1.10;;;18.60;99.90;;;;;;6232395;23;20364;-88
2023/09/30 06:04:09;;;;;;;0.70;0.70;;;18.70;99.90;;;;;;6231234;23;20421;-87
2023/09/30 06:06:36;;;;;;;1.53;1.43;;;18.70;99.90;;;;;;6258628;23;20421;-88
2023/09/30 06:09:04;;;;;;;0.60;0.60;;;18.70;99.90;;;;;;6231312;23;20436;-86
2023/09/30 06:11:30;;;;;;;2.83;2.60;;;18.70;99.90;;;;;;6260344;23;20416;-83
2023/09/30 06:14:01;;;;;;;1.07;1.07;;;18.70;99.90;;;;;;6258798;23;20753;-81
2023/09/30 06:16:28;;;;;;;8.73;3.20;;;18.50;99.90;;;;;;6233086;23;20511;-86
2023/09/30 06:18:55;;;;;;;0.80;0.80;;;18.50;99.90;;;;;;6258367;23;20580;-85
2023/09/30 06:21:28;;;;;;;0.80;0.80;;;18.30;99.90;;;;;;6263740;22;20362;-85
2023/09/30 06:23:56;;;;;;;0.60;0.60;;;18.20;99.90;;;;;;6259833;23;20378;-87
2023/09/30 06:26:24;;;;;;;0.80;0.80;;;18.30;99.90;;;;;;6260419;23;20389;-86
2023/09/30 06:28:54;;;;;;;0.80;0.80;;;18.30;99.90;;;;;;6260382;23;20406;-84
2023/09/30 06:31:23;;;;;;;0.90;0.90;;;18.00;99.90;;;;;;6262060;23;20372;-85
2023/09/30 06:33:50;;;;;;;0.77;0.77;;;18.00;99.90;;;;;;6265101;22;20405;-85
2023/09/30 06:36:20;;;;;;;2.93;2.40;;;17.90;99.90;;;;;;6260601;23;20471;-83
2023/09/30 06:38:50;;;;;;;0.50;0.50;;;17.80;99.90;;;;;;6259535;23;20494;-88
2023/09/30 06:41:17;;;;;;;1.00;1.00;;;17.70;99.90;;;;;;6257963;23;20379;-88
2023/09/30 06:43:46;;;;;;;0.60;0.60;;;17.70;99.90;;;;;;6258792;23;20461;-82
2023/09/30 06:46:13;;;;;;;0.60;0.60;;;17.70;99.90;;;;;;6258089;23;20386;-87
2023/09/30 06:48:41;;;;;;;1.93;1.77;;;17.60;99.90;;;;;;6231666;23;20424;-85
2023/09/30 06:51:15;;;;;;;0.70;0.70;;;17.50;99.90;;;;;;6258656;23;20404;-88
2023/09/30 06:53:45;;;;;;;0.80;0.80;;;17.50;99.90;;;;;;6264611;23;20355;-82
2023/09/30 06:56:13;;;;;;;1.43;1.33;;;17.50;99.90;;;;;;6263354;23;20392;-82
2023/09/30 06:58:41;;;;;;;1.13;1.13;;;17.40;99.90;;;;;;6265404;23;20404;-84
2023/09/30 07:01:09;;;;;;;0.90;0.90;;;17.50;99.90;;;;;;6236963;23;20429;-86
2023/09/30 07:03:37;;;;;;;1.27;1.27;;;17.40;99.90;;;;;;6256929;23;20397;-87
2023/09/30 07:06:05;;;;;;;2.03;1.93;;;17.50;99.90;;;;;;6255743;23;20477;-90
2023/09/30 07:08:32;;;;;;;0.93;0.93;;;17.50;99.90;;;;;;6228912;23;20422;-84
2023/09/30 07:11:00;;;;;;;0.80;0.80;;;17.50;99.90;;;;;;6254627;23;20413;-86
2023/09/30 07:13:28;;;;;;;0.80;0.80;;;17.50;99.90;;;;;;6255782;23;20451;-88
2023/09/30 07:15:55;;;;;;;1.63;1.53;;;17.50;99.90;;;;;;6255757;23;20464;-80
2023/09/30 07:18:24;;;;;;;1.77;1.67;;;17.50;99.90;;;;;;6259225;23;20419;-84
2023/09/30 07:20:51;;;;;;;1.63;1.53;;;17.40;99.90;;;;;;6238010;23;20400;-86
2023/09/30 07:23:19;;;;;;;0.70;0.70;;;17.30;99.90;;;;;;6257211;23;20371;-84
2023/09/30 07:25:49;;;;;;;1.17;1.17;;;17.40;99.90;;;;;;6260715;23;20397;-87
2023/09/30 07:28:16;;;;;;;0.90;0.90;;;17.40;99.90;;;;;;6258540;23;20403;-85
2023/09/30 07:30:44;;;;;;;0.90;0.90;;;17.50;99.90;;;;;;6259558;23;20397;-85
2023/09/30 07:33:11;;;;;;;0.80;0.73;;;17.40;99.90;;;;;;6258796;23;20401;-86
2023/09/30 07:35:38;;;;;;;2.77;1.50;;;17.40;99.90;;;;;;6260763;23;20437;-84
2023/09/30 07:38:06;;;;;;;4.77;2.73;;;17.30;99.90;;;;;;6267302;22;20405;-83
2023/09/30 07:40:33;;;;;;;0.90;0.90;;;17.30;99.90;;;;;;6244229;23;20375;-82
2023/09/30 07:43:00;;;;;;;1.13;1.13;;;17.20;99.90;;;;;;6235324;23;20363;-84
2023/09/30 07:45:27;;;;;;;0.60;0.60;;;17.00;99.90;;;;;;6259050;23;20460;-86
2023/09/30 07:47:58;;;;;;;2.40;2.20;;;16.90;99.90;;;;;;6262723;23;20481;-80
2023/09/30 07:50:25;;;;;;;0.50;0.50;;;16.90;99.90;;;;;;6233004;23;20443;-83
2023/09/30 07:52:55;;;;;;;0.60;0.60;;;17.00;99.90;;;;;;6258209;23;20409;-85
2023/09/30 07:55:24;;;;;;;0.70;0.70;;;17.10;99.90;;;;;;6257222;23;20470;-85
2023/09/30 07:57:51;;;;;;;0.60;0.60;;;17.30;99.90;;;;;;6253964;23;20404;-80
2023/09/30 08:00:21;;;;;;;0.60;0.60;;;17.50;99.90;;;;;;6254332;23;20364;-88
2023/09/30 08:02:48;;;;;;;0.83;0.83;;;17.50;99.90;;;;;;6255348;23;20384;-82
2023/09/30 08:05:15;;;;;;;0.60;0.60;;;17.60;99.90;;;;;;6255740;23;20383;-84
2023/09/30 08:07:42;;;;;;;0.80;0.80;;;17.80;99.90;;;;;;6227144;23;20395;-85
2023/09/30 08:10:13;;;;;;;0.60;0.60;;;17.90;99.90;;;;;;6254237;23;20526;-85
2023/09/30 08:12:41;;;;;;;0.60;0.60;;;18.30;99.90;;;;;;6256186;23;20370;-84
2023/09/30 08:15:11;;;;;;;0.70;0.70;;;19.20;99.90;;;;;;6234604;23;20367;-85
2023/09/30 08:17:39;;;;;;;1.67;1.57;;;20.00;99.90;;;;;;6261461;23;20615;-82
2023/09/30 08:20:08;;;;;;;2.40;2.20;;;20.30;99.90;;;;;;6257904;23;20572;-83
2023/09/30 08:22:38;;;;;;;0.80;0.80;;;20.50;99.90;;;;;;6228263;23;20913;-85
2023/09/30 08:25:06;;;;;;;0.70;0.70;;;20.80;99.90;;;;;;6257104;23;20368;-86
2023/09/30 08:27:36;;;;;;;0.70;0.70;;;20.90;99.90;;;;;;6255195;23;20378;-86
2023/09/30 08:30:05;;;;;;;0.90;0.90;;;21.40;99.90;;;;;;6228738;23;20390;-85
2023/09/30 08:32:39;;;;;;;0.73;0.73;;;21.30;99.90;;;;;;6254818;23;20380;-85
2023/09/30 08:35:07;;;;;;;0.90;0.90;;;21.70;99.90;;;;;;6255079;23;20404;-83
2023/09/30 08:37:34;;;;;;;0.70;0.70;;;21.50;99.90;;;;;;6232488;23;20468;-86
2023/09/30 08:40:04;;;;;;;0.80;0.80;;;20.70;99.90;;;;;;6239522;23;20380;-84
2023/09/30 08:42:34;;;;;;;1.23;1.23;;;20.10;99.90;;;;;;6270764;22;20416;-83
2023/09/30 08:45:06;;;;;;;0.70;0.70;;;19.70;99.90;;;;;;6271521;22;20397;-83
2023/09/30 08:47:35;;;;;;;0.70;0.70;;;20.30;99.90;;;;;;6267498;23;20367;-84
2023/09/30 08:50:08;;;;;;;1.20;1.20;;;20.50;99.90;;;;;;6265984;23;20405;-82
2023/09/30 08:52:41;;;;;;;0.80;0.80;;;20.40;99.90;;;;;;6214069;23;20355;-84
2023/09/30 08:55:09;;;;;;;1.83;1.73;;;20.30;99.90;;;;;;6261352;23;20429;-83
2023/09/30 08:57:56;;;;;;;0.90;0.90;;;20.40;99.90;;;;;;6233298;23;20383;-84
2023/09/30 09:00:28;;;;;;;0.83;0.83;;;20.60;99.90;;;;;;6230852;23;20355;-84
2023/09/30 09:02:55;;;;;;;0.70;0.70;;;20.90;99.90;;;;;;6255145;23;20376;-80
2023/09/30 09:05:21;;;;;;;0.70;0.70;;;20.80;99.90;;;;;;6255971;23;20388;-85
2023/09/30 09:07:50;;;;;;;0.77;0.77;;;20.90;99.90;;;;;;6254927;23;20397;-82
2023/09/30 09:10:20;;;;;;;1.00;1.00;;;20.70;99.90;;;;;;6236747;23;20397;-82
2023/09/30 09:12:56;;;;;;;0.60;0.60;;;20.70;99.90;;;;;;6273614;22;20372;-85
2023/09/30 09:15:31;;;;;;;0.70;0.70;;;20.40;99.90;;;;;;6273345;22;20373;-81
2023/09/30 09:17:58;;;;;;;0.90;0.90;;;20.30;99.90;;;;;;6271599;22;20344;-87
2023/09/30 09:20:25;;;;;;;0.60;0.60;;;20.10;99.90;;;;;;6258964;23;20378;-81
2023/09/30 09:22:55;;;;;;;0.80;0.80;;;19.90;99.90;;;;;;6228267;23;20372;-81
2023/09/30 09:25:23;;;;;;;0.70;0.70;;;19.60;99.90;;;;;;6256895;23;20428;-82
2023/09/30 09:27:54;;;;;;;1.73;1.63;;;19.60;99.90;;;;;;6255392;23;20393;-84
2023/09/30 09:30:24;;;;;;;0.60;0.60;;;20.30;99.90;;;;;;6229982;23;20577;-86
2023/09/30 09:33:03;;;;;;;3.13;1.33;;;20.40;99.90;;;;;;6234306;23;20439;-84
2023/09/30 09:35:33;;;;;;;0.60;0.60;;;20.50;99.90;;;;;;6270541;22;20534;-85
2023/09/30 09:38:09;;;;;;;1.73;1.00;;;20.40;99.90;;;;;;6267800;22;20376;-84
2023/09/30 09:40:40;;;;;;;0.70;0.70;;;20.00;99.90;;;;;;6240192;22;20336;-83
2023/09/30 09:43:11;;;;;;;0.80;0.80;;;19.90;99.90;;;;;;6258845;23;20621;-81
2023/09/30 09:45:38;;;;;;;0.80;0.80;;;19.70;99.90;;;;;;6230518;23;20551;-86
2023/09/30 09:48:06;;;;;;;1.37;1.10;;;20.20;99.90;;;;;;6255744;23;20372;-89
2023/09/30 09:50:35;;;;;;;0.80;0.80;;;20.10;99.90;;;;;;6257825;23;20462;-82
2023/09/30 09:53:04;;;;;;;0.70;0.70;;;19.70;99.90;;;;;;6232881;23;20422;-83
2023/09/30 09:55:32;;;;;;;0.90;0.90;;;19.50;99.90;;;;;;6256268;23;20397;-82
2023/09/30 09:58:02;;;;;;;0.70;0.70;;;19.70;99.90;;;;;;6256049;23;20720;-84
2023/09/30 10:00:31;;;;;;;0.70;0.70;;;19.60;99.90;;;;;;6257650;23;20352;-88
2023/09/30 10:02:58;;;;;;;5.20;2.67;;;19.60;99.90;;;;;;6230429;23;20444;-85
2023/09/30 10:05:27;;;;;;;0.60;0.60;;;19.50;99.90;;;;;;6260859;23;20494;-87
2023/09/30 10:08:07;;;;;;;2.20;1.90;;;19.50;99.90;;;;;;6259891;23;20403;-84
2023/09/30 10:10:37;;;;;;;0.60;0.60;;;19.60;99.90;;;;;;6259076;23;20367;-81
2023/09/30 10:13:05;;;;;;;0.60;0.60;;;19.80;99.90;;;;;;6258752;23;20425;-84
2023/09/30 10:15:34;;;;;;;1.93;1.83;;;19.50;99.90;;;;;;6255561;23;20461;-86
2023/09/30 10:18:09;;;;;;;0.90;0.90;;;19.70;99.90;;;;;;6254949;23;20488;-85
2023/09/30 10:20:48;;;;;;;1.17;1.17;;;20.00;99.90;;;;;;6257579;23;20363;-82
2023/09/30 10:23:27;;;;;;;0.90;0.90;;;19.80;99.90;;;;;;6260244;23;20344;-85
2023/09/30 10:26:15;;;;;;;0.70;0.70;;;19.50;99.90;;;;;;6230476;23;20340;-82
2023/09/30 10:28:46;;;;;;;1.43;1.43;;;19.40;99.90;;;;;;6257116;23;20425;-84
2023/09/30 10:31:24;;;;;;;2.30;1.53;;;19.20;99.90;;;;;;6230273;23;20416;-87
2023/09/30 10:34:01;;;;;;;0.60;0.60;;;19.40;99.90;;;;;;6230608;23;20662;-89
2023/09/30 10:36:32;;;;;;;0.60;0.60;;;19.50;99.90;;;;;;6231658;23;20368;-84
2023/09/30 10:39:02;;;;;;;1.03;1.03;;;19.40;99.90;;;;;;6232923;23;20368;-87
2023/09/30 10:41:50;;;;;;;0.60;0.60;;;19.50;99.90;;;;;;6264523;23;20344;-86
2023/09/30 10:44:29;;;;;;;0.70;0.70;;;19.60;99.90;;;;;;6241403;23;20332;-84
2023/09/30 10:47:34;;;;;;;0.80;0.80;;;19.70;99.90;;;;;;6242585;23;20348;-86
2023/09/30 10:50:22;;;;;;;0.70;0.70;;;19.80;99.90;;;;;;6265212;23;20407;-87
2023/09/30 10:52:49;;;;;;;0.70;0.70;;;19.60;99.90;;;;;;6259994;22;20418;-88
2023/09/30 10:55:19;;;;;;;1.20;1.17;;;19.80;99.90;;;;;;6228307;23;20391;-82
2023/09/30 10:57:51;;;;;;;1.10;1.10;;;19.50;99.90;;;;;;6256679;23;20379;-84
2023/09/30 11:00:18;;;;;;;0.60;0.60;;;19.90;99.90;;;;;;6255091;23;20684;-82
2023/09/30 11:02:52;;;;;;;1.63;1.47;;;19.80;99.90;;;;;;6255576;23;20372;-84
2023/09/30 11:05:23;;;;;;;1.20;1.10;;;19.90;99.90;;;;;;6254976;23;20450;-82
2023/09/30 11:08:10;;;;;;;0.60;0.60;;;19.70;99.90;;;;;;6256161;23;20572;-83
2023/09/30 11:10:37;;;;;;;0.60;0.60;;;19.60;99.90;;;;;;6230150;23;20413;-82
2023/09/30 11:13:05;;;;;;;0.63;0.63;;;19.60;99.90;;;;;;6256843;23;20387;-84
2023/09/30 11:15:32;;;;;;;1.07;0.93;;;19.80;99.90;;;;;;6255377;23;20371;-84
2023/09/30 11:18:14;;;;;;;3.23;2.07;;;19.70;99.90;;;;;;6256571;23;20447;-85
2023/09/30 11:20:45;;;;;;;2.73;2.40;;;19.70;99.90;;;;;;6230264;23;20348;-86
2023/09/30 11:23:12;;;;;;;0.90;0.90;;;19.70;99.90;;;;;;6255361;23;20470;-84
2023/09/30 11:25:41;;;;;;;0.70;0.70;;;19.70;99.90;;;;;;6228952;23;20447;-85
2023/09/30 11:28:18;;;;;;;0.70;0.70;;;19.60;99.90;;;;;;6255411;23;20375;-83
2023/09/30 11:30:56;;;;;;;0.80;0.80;;;19.50;99.90;;;;;;6257581;23;20466;-83
2023/09/30 11:33:25;;;;;;;0.60;0.60;;;19.60;99.90;;;;;;6259521;23;20400;-86
2023/09/30 11:36:01;;;;;;;1.30;1.20;;;19.50;99.90;;;;;;6255600;23;20383;-84
2023/09/30 11:38:29;;;;;;;0.80;0.80;;;19.40;99.90;;;;;;6230136;23;20376;-87
2023/09/30 11:41:05;;;;;;;0.90;0.90;;;19.40;99.90;;;;;;6255067;23;20374;-85
2023/09/30 11:44:05;;;;;;;3.67;2.03;;;19.60;99.90;;;;;;6256418;23;20499;-82
2023/09/30 11:46:33;;;;;;;0.77;0.77;;;19.70;99.90;;;;;;6229680;23;20364;-86
2023/09/30 11:49:02;;;;;;;1.03;1.03;;;19.70;99.90;;;;;;6259663;23;20629;-85
2023/09/30 11:51:31;;;;;;;1.77;1.67;;;19.80;99.90;;;;;;6258564;23;20719;-86
2023/09/30 11:54:01;;;;;;;0.70;0.70;;;19.90;99.90;;;;;;6260247;23;20383;-85
2023/09/30 11:56:29;;;;;;;1.90;1.63;;;20.00;99.90;;;;;;6260468;23;20352;-85
2023/09/30 11:58:57;;;;;;;1.97;1.83;;;20.10;99.90;;;;;;6232915;23;20371;-86
2023/09/30 12:01:25;;;;;;;0.83;0.83;;;20.00;99.90;;;;;;6230924;23;20394;-85
2023/09/30 12:03:55;;;;;;;0.70;0.70;;;19.90;99.90;;;;;;6258164;23;20616;-89
2023/09/30 12:06:24;;;;;;;1.00;1.00;;;20.10;99.90;;;;;;6261675;23;20364;-83
2023/09/30 12:08:52;;;;;;;0.97;0.97;;;19.80;99.90;;;;;;6258873;23;20984;-89
2023/09/30 12:11:19;;;;;;;0.80;0.80;;;19.70;99.90;;;;;;6229683;23;20750;-88
2023/09/30 12:13:48;;;;;;;2.33;1.80;;;19.80;99.90;;;;;;6230012;23;20441;-86
2023/09/30 12:16:16;;;;;;;1.33;1.33;;;19.60;99.90;;;;;;6265309;22;20410;-84
2023/09/30 12:18:43;;;;;;;1.17;1.17;;;19.50;99.90;;;;;;6235530;23;20409;-84
2023/09/30 12:21:13;;;;;;;0.87;0.87;;;19.20;99.90;;;;;;6259951;23;20355;-86
2023/09/30 12:23:41;;;;;;;0.80;0.80;;;19.30;99.90;;;;;;6263478;23;20592;-86
2023/09/30 12:26:10;;;;;;;1.47;1.37;;;19.20;99.90;;;;;;6216850;22;20828;-86
2023/09/30 12:28:42;;;;;;;0.60;0.60;;;19.40;99.90;;;;;;6209118;23;20368;-85
2023/09/30 12:31:10;;;;;;;0.60;0.60;;;19.50;99.90;;;;;;6237724;23;20413;-83
2023/09/30 12:33:42;;;;;;;0.70;0.70;;;19.20;99.90;;;;;;6216155;23;20409;-86
2023/09/30 12:36:12;;;;;;;0.70;0.70;;;19.00;99.90;;;;;;6233825;22;20413;-87
2023/09/30 12:38:40;;;;;;;0.70;0.70;;;19.30;99.90;;;;;;6242611;22;20377;-86
2023/09/30 12:41:09;;;;;;;2.03;1.93;;;19.20;99.90;;;;;;6213705;23;20383;-88
2023/09/30 12:43:38;;;;;;;0.90;0.90;;;19.50;99.90;;;;;;6214295;23;20401;-86
2023/09/30 12:46:05;;;;;;;1.47;1.37;;;19.60;99.90;;;;;;6239479;22;20441;-84
2023/09/30 12:48:33;;;;;;;0.80;0.80;;;19.50;99.90;;;;;;6232871;23;20471;-89
2023/09/30 12:51:04;;;;;;;12.80;1.97;;;19.60;99.90;;;;;;6231296;23;20419;-87
2023/09/30 12:56:05;;;;;;;0.87;0.87;;;19.80;99.90;;;;;;6238347;23;20467;-83
2023/09/30 12:58:32;;;;;;;0.90;0.90;;;19.90;99.90;;;;;;6238419;23;20361;-82
2023/09/30 13:01:02;;;;;;;1.27;1.27;;;19.90;99.90;;;;;;6238802;23;20746;-85